sensor_id;sensor_type;location;lat;lon;timestamp;temperature;humidity
8886;DHT22;4479;51.162;13.906;2023-03-03T00:17:17;2.60;99.90
8886;DHT22;4479;51.162;13.906;2023-03-03T00:27:28;2.60;99.90
8886;DHT22;4479;51.162;13.906;2023-03-03T00:37:33;2.60;99.90
8886;DHT22;4479;51.162;13.906;2023-03-03T00:47:37;2.50;99.90
8886;DHT22;4479;51.162;13.906;2023-03-03T00:57:40;2.20;99.90
8886;DHT22;4479;51.162;13.906;2023-03-03T01:17:48;2.00;99.90
8886;DHT22;4479;51.162;13.906;2023-03-03T01:37:54;1.90;99.90
8886;DHT22;4479;51.162;13.906;2023-03-03T01:47:59;1.80;99.90
8886;DHT22;4479;51.162;13.906;2023-03-03T01:58:07;1.80;99.90
8886;DHT22;4479;51.162;13.906;2023-03-03T02:08:14;1.90;99.90
8886;DHT22;4479;51.162;13.906;2023-03-03T02:18:21;2.00;99.90
8886;DHT22;4479;51.162;13.906;2023-03-03T02:28:28;2.00;99.90
8886;DHT22;4479;51.162;13.906;2023-03-03T02:38:38;2.00;99.90
8886;DHT22;4479;51.162;13.906;2023-03-03T02:48:45;2.10;99.90
8886;DHT22;4479;51.162;13.906;2023-03-03T03:08:51;2.10;99.90
8886;DHT22;4479;51.162;13.906;2023-03-03T03:28:58;1.80;99.90
8886;DHT22;4479;51.162;13.906;2023-03-03T03:49:09;1.70;99.90
8886;DHT22;4479;51.162;13.906;2023-03-03T04:09:15;1.70;99.90
8886;DHT22;4479;51.162;13.906;2023-03-03T04:29:25;1.60;99.90
8886;DHT22;4479;51.162;13.906;2023-03-03T04:49:33;1.50;99.90
8886;DHT22;4479;51.162;13.906;2023-03-03T05:09:39;1.60;99.90
8886;DHT22;4479;51.162;13.906;2023-03-03T05:29:45;-1.40;99.90
8886;DHT22;4479;51.162;13.906;2023-03-03T05:49:51;1.90;99.90
8886;DHT22;4479;51.162;13.906;2023-03-03T06:09:57;2.20;99.90
8886;DHT22;4479;51.162;13.906;2023-03-03T06:30:06;2.30;99.90
8886;DHT22;4479;51.162;13.906;2023-03-03T06:40:10;3.80;99.90
8886;DHT22;4479;51.162;13.906;2023-03-03T06:50:17;2.20;99.90
8886;DHT22;4479;51.162;13.906;2023-03-03T07:00:23;2.20;99.90
8886;DHT22;4479;51.162;13.906;2023-03-03T07:10:29;2.30;99.90
8886;DHT22;4479;51.162;13.906;2023-03-03T07:20:34;2.30;99.90
8886;DHT22;4479;51.162;13.906;2023-03-03T07:30:39;2.30;99.90
8886;DHT22;4479;51.162;13.906;2023-03-03T07:40:46;2.20;99.90
8886;DHT22;4479;51.162;13.906;2023-03-03T07:50:51;2.00;99.90
8886;DHT22;4479;51.162;13.906;2023-03-03T08:11:31;2.20;99.90
8886;DHT22;4479;51.162;13.906;2023-03-03T08:21:34;2.40;99.90
8886;DHT22;4479;51.162;13.906;2023-03-03T08:31:38;2.50;99.90
8886;DHT22;4479;51.162;13.906;2023-03-03T08:51:45;2.60;99.90
8886;DHT22;4479;51.162;13.906;2023-03-03T09:11:52;2.70;99.90
8886;DHT22;4479;51.162;13.906;2023-03-03T09:21:58;2.80;99.90
8886;DHT22;4479;51.162;13.906;2023-03-03T09:32:20;2.60;99.90
8886;DHT22;4479;51.162;13.906;2023-03-03T09:42:40;2.50;99.90
8886;DHT22;4479;51.162;13.906;2023-03-03T09:53:04;2.20;99.90
8886;DHT22;4479;51.162;13.906;2023-03-03T10:03:51;2.00;99.90
8886;DHT22;4479;51.162;13.906;2023-03-03T10:14:39;2.10;99.90
8886;DHT22;4479;51.162;13.906;2023-03-03T10:25:01;2.30;99.90
8886;DHT22;4479;51.162;13.906;2023-03-03T10:35:21;2.50;99.90
8886;DHT22;4479;51.162;13.906;2023-03-03T10:45:51;2.70;99.90
8886;DHT22;4479;51.162;13.906;2023-03-03T10:56:13;2.90;99.90
8886;DHT22;4479;51.162;13.906;2023-03-03T11:06:25;3.00;99.90
8886;DHT22;4479;51.162;13.906;2023-03-03T11:16:41;3.20;99.90
8886;DHT22;4479;51.162;13.906;2023-03-03T11:27:01;3.40;99.90
8886;DHT22;4479;51.162;13.906;2023-03-03T11:37:12;3.50;99.90
8886;DHT22;4479;51.162;13.906;2023-03-03T11:47:22;3.50;99.90
8886;DHT22;4479;51.162;13.906;2023-03-03T11:57:30;4.90;99.90
8886;DHT22;4479;51.162;13.906;2023-03-03T12:07:42;3.70;99.90
8886;DHT22;4479;51.162;13.906;2023-03-03T12:28:25;3.90;99.90
8886;DHT22;4479;51.162;13.906;2023-03-03T12:38:37;3.90;99.90
8886;DHT22;4479;51.162;13.906;2023-03-03T12:48:42;3.90;99.90
8886;DHT22;4479;51.162;13.906;2023-03-03T12:58:53;4.00;99.90
8886;DHT22;4479;51.162;13.906;2023-03-03T13:09:10;4.10;99.90
8886;DHT22;4479;51.162;13.906;2023-03-03T13:19:22;6.40;99.90
8886;DHT22;4479;51.162;13.906;2023-03-03T13:29:31;4.30;99.90
8886;DHT22;4479;51.162;13.906;2023-03-03T13:39:50;4.50;99.90
8886;DHT22;4479;51.162;13.906;2023-03-03T13:50:10;4.60;99.90
8886;DHT22;4479;51.162;13.906;2023-03-03T14:00:29;4.60;99.90
8886;DHT22;4479;51.162;13.906;2023-03-03T14:10:45;4.60;99.90
8886;DHT22;4479;51.162;13.906;2023-03-03T14:20:52;4.60;99.90
8886;DHT22;4479;51.162;13.906;2023-03-03T14:30:56;4.60;99.90
8886;DHT22;4479;51.162;13.906;2023-03-03T14:41:14;4.60;99.90
8886;DHT22;4479;51.162;13.906;2023-03-03T14:51:23;4.70;99.90
8886;DHT22;4479;51.162;13.906;2023-03-03T15:01:32;4.70;99.90
8886;DHT22;4479;51.162;13.906;2023-03-03T15:11:35;4.70;99.90
8886;DHT22;4479;51.162;13.906;2023-03-03T15:21:43;4.70;99.90
8886;DHT22;4479;51.162;13.906;2023-03-03T15:31:59;4.60;99.90
8886;DHT22;4479;51.162;13.906;2023-03-03T15:42:12;4.60;99.90
8886;DHT22;4479;51.162;13.906;2023-03-03T15:52:24;4.60;99.90
8886;DHT22;4479;51.162;13.906;2023-03-03T16:02:46;4.60;99.90
8886;DHT22;4479;51.162;13.906;2023-03-03T16:12:58;4.50;99.90
8886;DHT22;4479;51.162;13.906;2023-03-03T16:23:28;4.50;99.90
8886;DHT22;4479;51.162;13.906;2023-03-03T16:45:01;4.40;99.90
8886;DHT22;4479;51.162;13.906;2023-03-03T16:55:11;4.40;99.90
8886;DHT22;4479;51.162;13.906;2023-03-03T17:05:26;4.40;99.90
8886;DHT22;4479;51.162;13.906;2023-03-03T17:15:46;4.40;99.90
8886;DHT22;4479;51.162;13.906;2023-03-03T17:26:04;4.30;99.90
8886;DHT22;4479;51.162;13.906;2023-03-03T17:36:20;4.30;99.90
8886;DHT22;4479;51.162;13.906;2023-03-03T17:46:33;4.30;99.90
8886;DHT22;4479;51.162;13.906;2023-03-03T17:56:44;4.30;99.90
8886;DHT22;4479;51.162;13.906;2023-03-03T18:07:17;4.30;99.90
8886;DHT22;4479;51.162;13.906;2023-03-03T18:17:47;4.30;99.90
8886;DHT22;4479;51.162;13.906;2023-03-03T18:28:20;4.30;99.90
8886;DHT22;4479;51.162;13.906;2023-03-03T18:38:36;4.30;99.90
8886;DHT22;4479;51.162;13.906;2023-03-03T18:48:48;4.30;99.90
8886;DHT22;4479;51.162;13.906;2023-03-03T19:08:57;4.30;99.90
8886;DHT22;4479;51.162;13.906;2023-03-03T19:19:04;4.40;99.90
8886;DHT22;4479;51.162;13.906;2023-03-03T19:29:47;4.40;99.90
8886;DHT22;4479;51.162;13.906;2023-03-03T19:40:02;4.40;99.90
8886;DHT22;4479;51.162;13.906;2023-03-03T19:50:21;4.40;99.90
8886;DHT22;4479;51.162;13.906;2023-03-03T20:00:34;4.40;99.90
8886;DHT22;4479;51.162;13.906;2023-03-03T20:10:47;4.40;99.90
8886;DHT22;4479;51.162;13.906;2023-03-03T20:20:59;4.40;99.90
8886;DHT22;4479;51.162;13.906;2023-03-03T20:31:17;4.40;99.90
8886;DHT22;4479;51.162;13.906;2023-03-03T20:41:48;4.40;99.90
8886;DHT22;4479;51.162;13.906;2023-03-03T20:52:10;4.40;99.90
8886;DHT22;4479;51.162;13.906;2023-03-03T21:02:21;4.40;99.90
8886;DHT22;4479;51.162;13.906;2023-03-03T21:12:29;4.40;99.90
8886;DHT22;4479;51.162;13.906;2023-03-03T21:32:38;4.40;99.90
8886;DHT22;4479;51.162;13.906;2023-03-03T21:52:46;4.40;99.90
8886;DHT22;4479;51.162;13.906;2023-03-03T22:12:52;4.40;99.90
8886;DHT22;4479;51.162;13.906;2023-03-03T22:33:12;4.40;99.90
8886;DHT22;4479;51.162;13.906;2023-03-03T22:53:19;4.40;99.90
8886;DHT22;4479;51.162;13.906;2023-03-03T23:13:25;4.40;99.90
8886;DHT22;4479;51.162;13.906;2023-03-03T23:33:31;4.40;99.90
8886;DHT22;4479;51.162;13.906;2023-03-03T23:53:38;4.40;99.90
